sensor_id;sensor_type;location;lat;lon;timestamp;P1;durP1;ratioP1;P2;durP2;ratioP2
39486;SDS011;25173;50.430;18.926;2024-01-30T00:02:25;42.03;;;21.75;;
39486;SDS011;25173;50.430;18.926;2024-01-30T00:05:26;46.60;;;23.35;;
39486;SDS011;25173;50.430;18.926;2024-01-30T00:08:26;55.97;;;30.63;;
39486;SDS011;25173;50.430;18.926;2024-01-30T00:11:27;44.22;;;25.50;;
39486;SDS011;25173;50.430;18.926;2024-01-30T00:14:29;45.97;;;25.13;;
39486;SDS011;25173;50.430;18.926;2024-01-30T00:17:29;44.13;;;23.52;;
39486;SDS011;25173;50.430;18.926;2024-01-30T00:20:30;37.80;;;20.30;;
39486;SDS011;25173;50.430;18.926;2024-01-30T00:23:30;35.22;;;20.88;;
39486;SDS011;25173;50.430;18.926;2024-01-30T00:26:31;34.10;;;17.80;;
39486;SDS011;25173;50.430;18.926;2024-01-30T00:29:31;34.75;;;19.80;;
39486;SDS011;25173;50.430;18.926;2024-01-30T00:32:33;35.38;;;19.80;;
39486;SDS011;25173;50.430;18.926;2024-01-30T00:35:34;43.58;;;21.02;;
39486;SDS011;25173;50.430;18.926;2024-01-30T00:38:35;35.22;;;18.65;;
39486;SDS011;25173;50.430;18.926;2024-01-30T00:41:36;34.70;;;19.20;;
39486;SDS011;25173;50.430;18.926;2024-01-30T00:44:36;38.10;;;16.63;;
39486;SDS011;25173;50.430;18.926;2024-01-30T00:47:38;37.47;;;18.05;;
39486;SDS011;25173;50.430;18.926;2024-01-30T00:50:39;41.63;;;20.15;;
39486;SDS011;25173;50.430;18.926;2024-01-30T00:53:39;36.78;;;18.10;;
39486;SDS011;25173;50.430;18.926;2024-01-30T00:56:41;36.85;;;18.98;;
39486;SDS011;25173;50.430;18.926;2024-01-30T00:59:42;33.35;;;17.92;;
39486;SDS011;25173;50.430;18.926;2024-01-30T01:02:43;31.63;;;17.30;;
39486;SDS011;25173;50.430;18.926;2024-01-30T01:05:44;35.42;;;19.25;;
39486;SDS011;25173;50.430;18.926;2024-01-30T01:08:44;39.08;;;19.83;;
39486;SDS011;25173;50.430;18.926;2024-01-30T01:11:45;35.10;;;17.65;;
39486;SDS011;25173;50.430;18.926;2024-01-30T01:14:45;28.45;;;15.70;;
39486;SDS011;25173;50.430;18.926;2024-01-30T01:17:46;29.83;;;15.57;;
39486;SDS011;25173;50.430;18.926;2024-01-30T01:20:46;29.63;;;14.57;;
39486;SDS011;25173;50.430;18.926;2024-01-30T01:23:47;28.75;;;14.63;;
39486;SDS011;25173;50.430;18.926;2024-01-30T01:26:48;26.40;;;14.85;;
39486;SDS011;25173;50.430;18.926;2024-01-30T01:29:48;30.25;;;14.90;;
39486;SDS011;25173;50.430;18.926;2024-01-30T01:32:49;26.20;;;13.70;;
39486;SDS011;25173;50.430;18.926;2024-01-30T01:35:56;26.65;;;13.77;;
39486;SDS011;25173;50.430;18.926;2024-01-30T01:38:57;27.75;;;14.63;;
39486;SDS011;25173;50.430;18.926;2024-01-30T01:41:57;28.13;;;14.20;;
39486;SDS011;25173;50.430;18.926;2024-01-30T01:44:58;26.08;;;14.40;;
39486;SDS011;25173;50.430;18.926;2024-01-30T01:47:58;25.13;;;12.75;;
39486;SDS011;25173;50.430;18.926;2024-01-30T01:50:59;21.98;;;12.45;;
39486;SDS011;25173;50.430;18.926;2024-01-30T01:54:01;22.40;;;12.63;;
39486;SDS011;25173;50.430;18.926;2024-01-30T01:57:04;23.40;;;12.68;;
39486;SDS011;25173;50.430;18.926;2024-01-30T02:00:05;22.40;;;12.48;;
39486;SDS011;25173;50.430;18.926;2024-01-30T02:03:09;20.83;;;12.50;;
39486;SDS011;25173;50.430;18.926;2024-01-30T02:06:12;24.02;;;12.60;;
39486;SDS011;25173;50.430;18.926;2024-01-30T02:09:13;24.50;;;12.98;;
39486;SDS011;25173;50.430;18.926;2024-01-30T02:12:14;24.80;;;12.93;;
39486;SDS011;25173;50.430;18.926;2024-01-30T02:15:14;28.05;;;14.20;;
39486;SDS011;25173;50.430;18.926;2024-01-30T02:18:15;24.52;;;13.30;;
39486;SDS011;25173;50.430;18.926;2024-01-30T02:21:16;23.73;;;13.50;;
39486;SDS011;25173;50.430;18.926;2024-01-30T02:24:18;22.80;;;12.63;;
39486;SDS011;25173;50.430;18.926;2024-01-30T02:27:18;21.50;;;13.52;;
39486;SDS011;25173;50.430;18.926;2024-01-30T02:30:19;27.63;;;14.45;;
39486;SDS011;25173;50.430;18.926;2024-01-30T02:33:19;27.90;;;13.63;;
39486;SDS011;25173;50.430;18.926;2024-01-30T02:36:22;25.33;;;14.27;;
39486;SDS011;25173;50.430;18.926;2024-01-30T02:39:22;24.83;;;14.45;;
39486;SDS011;25173;50.430;18.926;2024-01-30T02:42:23;25.35;;;14.50;;
39486;SDS011;25173;50.430;18.926;2024-01-30T02:45:24;30.42;;;15.40;;
39486;SDS011;25173;50.430;18.926;2024-01-30T02:48:24;32.35;;;15.52;;
39486;SDS011;25173;50.430;18.926;2024-01-30T02:51:25;29.38;;;15.35;;
39486;SDS011;25173;50.430;18.926;2024-01-30T02:54:25;30.33;;;15.00;;
39486;SDS011;25173;50.430;18.926;2024-01-30T02:57:26;29.63;;;15.35;;
39486;SDS011;25173;50.430;18.926;2024-01-30T03:00:26;19.90;;;12.27;;
39486;SDS011;25173;50.430;18.926;2024-01-30T03:03:27;20.95;;;13.32;;
39486;SDS011;25173;50.430;18.926;2024-01-30T03:06:27;22.33;;;13.05;;
39486;SDS011;25173;50.430;18.926;2024-01-30T03:09:28;25.63;;;12.38;;
39486;SDS011;25173;50.430;18.926;2024-01-30T03:12:28;22.98;;;12.68;;
39486;SDS011;25173;50.430;18.926;2024-01-30T03:15:29;26.50;;;12.98;;
39486;SDS011;25173;50.430;18.926;2024-01-30T03:18:30;21.48;;;13.50;;
39486;SDS011;25173;50.430;18.926;2024-01-30T03:21:30;26.65;;;12.52;;
39486;SDS011;25173;50.430;18.926;2024-01-30T03:24:31;26.02;;;13.77;;
39486;SDS011;25173;50.430;18.926;2024-01-30T03:27:31;23.10;;;13.45;;
39486;SDS011;25173;50.430;18.926;2024-01-30T03:30:32;28.42;;;12.88;;
39486;SDS011;25173;50.430;18.926;2024-01-30T03:33:32;27.65;;;13.52;;
39486;SDS011;25173;50.430;18.926;2024-01-30T03:36:33;31.45;;;18.02;;
39486;SDS011;25173;50.430;18.926;2024-01-30T03:39:34;30.48;;;18.50;;
39486;SDS011;25173;50.430;18.926;2024-01-30T03:42:36;28.33;;;14.48;;
39486;SDS011;25173;50.430;18.926;2024-01-30T03:45:37;26.05;;;14.00;;
39486;SDS011;25173;50.430;18.926;2024-01-30T03:48:38;28.30;;;17.42;;
39486;SDS011;25173;50.430;18.926;2024-01-30T03:51:39;29.23;;;16.02;;
39486;SDS011;25173;50.430;18.926;2024-01-30T03:54:39;29.02;;;14.73;;
39486;SDS011;25173;50.430;18.926;2024-01-30T03:57:40;33.97;;;19.67;;
39486;SDS011;25173;50.430;18.926;2024-01-30T04:00:40;42.67;;;23.02;;
39486;SDS011;25173;50.430;18.926;2024-01-30T04:03:41;42.63;;;24.73;;
39486;SDS011;25173;50.430;18.926;2024-01-30T04:06:44;89.40;;;43.10;;
39486;SDS011;25173;50.430;18.926;2024-01-30T04:09:45;76.95;;;41.15;;
39486;SDS011;25173;50.430;18.926;2024-01-30T04:12:46;27.60;;;16.25;;
39486;SDS011;25173;50.430;18.926;2024-01-30T04:15:46;29.15;;;15.90;;
39486;SDS011;25173;50.430;18.926;2024-01-30T04:18:47;25.75;;;15.90;;
39486;SDS011;25173;50.430;18.926;2024-01-30T04:21:48;33.35;;;19.17;;
39486;SDS011;25173;50.430;18.926;2024-01-30T04:24:48;31.30;;;17.10;;
39486;SDS011;25173;50.430;18.926;2024-01-30T04:27:49;46.88;;;26.15;;
39486;SDS011;25173;50.430;18.926;2024-01-30T04:30:49;41.05;;;20.35;;
39486;SDS011;25173;50.430;18.926;2024-01-30T04:33:51;79.25;;;37.28;;
39486;SDS011;25173;50.430;18.926;2024-01-30T04:36:51;59.85;;;30.30;;
39486;SDS011;25173;50.430;18.926;2024-01-30T04:39:52;118.25;;;48.50;;
39486;SDS011;25173;50.430;18.926;2024-01-30T04:42:53;69.25;;;30.27;;
39486;SDS011;25173;50.430;18.926;2024-01-30T04:45:53;32.90;;;16.77;;
39486;SDS011;25173;50.430;18.926;2024-01-30T04:48:54;29.10;;;16.02;;
39486;SDS011;25173;50.430;18.926;2024-01-30T04:51:54;31.95;;;16.48;;
39486;SDS011;25173;50.430;18.926;2024-01-30T04:54:56;32.95;;;17.13;;
39486;SDS011;25173;50.430;18.926;2024-01-30T04:57:56;30.73;;;16.25;;
39486;SDS011;25173;50.430;18.926;2024-01-30T05:00:57;32.58;;;17.08;;
39486;SDS011;25173;50.430;18.926;2024-01-30T05:03:57;42.42;;;24.65;;
39486;SDS011;25173;50.430;18.926;2024-01-30T05:06:58;38.58;;;21.60;;
39486;SDS011;25173;50.430;18.926;2024-01-30T05:09:58;35.60;;;18.40;;
39486;SDS011;25173;50.430;18.926;2024-01-30T05:12:59;50.67;;;28.55;;
39486;SDS011;25173;50.430;18.926;2024-01-30T05:16:01;45.25;;;27.23;;
39486;SDS011;25173;50.430;18.926;2024-01-30T05:19:03;38.08;;;24.33;;
39486;SDS011;25173;50.430;18.926;2024-01-30T05:22:04;40.33;;;27.55;;
39486;SDS011;25173;50.430;18.926;2024-01-30T05:25:05;110.68;;;86.07;;
39486;SDS011;25173;50.430;18.926;2024-01-30T05:28:06;56.95;;;45.63;;
39486;SDS011;25173;50.430;18.926;2024-01-30T05:31:06;36.00;;;21.42;;
39486;SDS011;25173;50.430;18.926;2024-01-30T05:34:07;28.42;;;17.90;;
39486;SDS011;25173;50.430;18.926;2024-01-30T05:37:08;38.80;;;20.77;;
39486;SDS011;25173;50.430;18.926;2024-01-30T05:40:09;44.28;;;24.33;;
39486;SDS011;25173;50.430;18.926;2024-01-30T05:43:10;34.00;;;22.13;;
39486;SDS011;25173;50.430;18.926;2024-01-30T05:46:11;37.28;;;17.92;;
39486;SDS011;25173;50.430;18.926;2024-01-30T05:49:11;30.77;;;17.45;;
39486;SDS011;25173;50.430;18.926;2024-01-30T05:52:12;27.40;;;14.88;;
39486;SDS011;25173;50.430;18.926;2024-01-30T05:55:13;25.10;;;14.40;;
39486;SDS011;25173;50.430;18.926;2024-01-30T05:58:13;30.45;;;16.55;;
39486;SDS011;25173;50.430;18.926;2024-01-30T06:01:14;29.33;;;16.80;;
39486;SDS011;25173;50.430;18.926;2024-01-30T06:04:15;29.33;;;18.25;;
39486;SDS011;25173;50.430;18.926;2024-01-30T06:07:15;27.85;;;17.70;;
39486;SDS011;25173;50.430;18.926;2024-01-30T06:10:17;33.38;;;21.65;;
39486;SDS011;25173;50.430;18.926;2024-01-30T06:13:18;34.85;;;23.48;;
39486;SDS011;25173;50.430;18.926;2024-01-30T06:16:18;34.40;;;19.92;;
39486;SDS011;25173;50.430;18.926;2024-01-30T06:19:21;67.40;;;43.00;;
39486;SDS011;25173;50.430;18.926;2024-01-30T06:22:21;35.53;;;20.23;;
39486;SDS011;25173;50.430;18.926;2024-01-30T06:25:22;38.28;;;23.35;;
39486;SDS011;25173;50.430;18.926;2024-01-30T06:28:22;51.22;;;30.10;;
39486;SDS011;25173;50.430;18.926;2024-01-30T06:31:23;33.55;;;19.63;;
39486;SDS011;25173;50.430;18.926;2024-01-30T06:34:23;47.67;;;27.05;;
39486;SDS011;25173;50.430;18.926;2024-01-30T06:37:24;62.63;;;34.58;;
39486;SDS011;25173;50.430;18.926;2024-01-30T06:40:25;58.10;;;27.10;;
39486;SDS011;25173;50.430;18.926;2024-01-30T06:43:25;75.00;;;40.38;;
39486;SDS011;25173;50.430;18.926;2024-01-30T06:46:26;73.30;;;39.35;;
39486;SDS011;25173;50.430;18.926;2024-01-30T06:49:27;75.03;;;42.20;;
39486;SDS011;25173;50.430;18.926;2024-01-30T06:52:28;50.22;;;30.85;;
39486;SDS011;25173;50.430;18.926;2024-01-30T06:55:28;53.67;;;31.60;;
39486;SDS011;25173;50.430;18.926;2024-01-30T06:58:29;50.88;;;30.83;;
39486;SDS011;25173;50.430;18.926;2024-01-30T07:01:30;44.78;;;25.52;;
39486;SDS011;25173;50.430;18.926;2024-01-30T07:04:30;53.42;;;30.27;;
39486;SDS011;25173;50.430;18.926;2024-01-30T07:07:32;41.13;;;23.23;;
39486;SDS011;25173;50.430;18.926;2024-01-30T07:10:33;47.03;;;26.95;;
39486;SDS011;25173;50.430;18.926;2024-01-30T07:13:34;48.30;;;28.35;;
39486;SDS011;25173;50.430;18.926;2024-01-30T07:16:35;74.88;;;44.50;;
39486;SDS011;25173;50.430;18.926;2024-01-30T07:19:36;76.55;;;35.65;;
39486;SDS011;25173;50.430;18.926;2024-01-30T07:22:37;69.13;;;31.85;;
39486;SDS011;25173;50.430;18.926;2024-01-30T07:25:37;66.90;;;32.03;;
39486;SDS011;25173;50.430;18.926;2024-01-30T07:28:38;49.08;;;24.35;;
39486;SDS011;25173;50.430;18.926;2024-01-30T07:31:38;49.38;;;24.40;;
39486;SDS011;25173;50.430;18.926;2024-01-30T07:34:39;44.40;;;23.45;;
39486;SDS011;25173;50.430;18.926;2024-01-30T07:37:39;37.58;;;21.30;;
39486;SDS011;25173;50.430;18.926;2024-01-30T07:40:40;43.25;;;23.65;;
39486;SDS011;25173;50.430;18.926;2024-01-30T07:43:43;49.33;;;27.30;;
39486;SDS011;25173;50.430;18.926;2024-01-30T07:46:44;75.07;;;38.63;;
39486;SDS011;25173;50.430;18.926;2024-01-30T07:49:44;91.00;;;53.90;;
39486;SDS011;25173;50.430;18.926;2024-01-30T07:52:45;55.10;;;31.33;;
39486;SDS011;25173;50.430;18.926;2024-01-30T07:55:46;39.88;;;22.13;;
39486;SDS011;25173;50.430;18.926;2024-01-30T07:58:46;34.33;;;18.52;;
39486;SDS011;25173;50.430;18.926;2024-01-30T08:01:47;25.45;;;16.55;;
39486;SDS011;25173;50.430;18.926;2024-01-30T08:04:47;39.25;;;20.00;;
39486;SDS011;25173;50.430;18.926;2024-01-30T08:07:49;37.85;;;18.52;;
39486;SDS011;25173;50.430;18.926;2024-01-30T08:10:50;30.85;;;16.67;;
39486;SDS011;25173;50.430;18.926;2024-01-30T08:13:51;24.60;;;14.32;;
39486;SDS011;25173;50.430;18.926;2024-01-30T08:16:52;34.85;;;20.33;;
39486;SDS011;25173;50.430;18.926;2024-01-30T08:19:53;39.28;;;19.70;;
39486;SDS011;25173;50.430;18.926;2024-01-30T08:22:53;32.28;;;18.08;;
39486;SDS011;25173;50.430;18.926;2024-01-30T08:25:54;29.77;;;16.48;;
39486;SDS011;25173;50.430;18.926;2024-01-30T08:28:54;28.02;;;15.45;;
39486;SDS011;25173;50.430;18.926;2024-01-30T08:31:55;27.30;;;15.38;;
39486;SDS011;25173;50.430;18.926;2024-01-30T08:34:56;26.60;;;14.90;;
39486;SDS011;25173;50.430;18.926;2024-01-30T08:37:56;35.58;;;16.88;;
39486;SDS011;25173;50.430;18.926;2024-01-30T08:40:57;42.15;;;20.23;;
39486;SDS011;25173;50.430;18.926;2024-01-30T08:43:57;35.75;;;18.88;;
39486;SDS011;25173;50.430;18.926;2024-01-30T08:46:58;34.58;;;16.88;;
39486;SDS011;25173;50.430;18.926;2024-01-30T08:49:58;24.60;;;13.48;;
39486;SDS011;25173;50.430;18.926;2024-01-30T08:52:59;23.50;;;13.77;;
39486;SDS011;25173;50.430;18.926;2024-01-30T08:56:00;23.48;;;13.20;;
39486;SDS011;25173;50.430;18.926;2024-01-30T08:59:02;32.08;;;17.13;;
39486;SDS011;25173;50.430;18.926;2024-01-30T09:02:02;26.02;;;15.57;;
39486;SDS011;25173;50.430;18.926;2024-01-30T09:05:04;25.50;;;13.60;;
39486;SDS011;25173;50.430;18.926;2024-01-30T09:08:05;31.65;;;17.65;;
39486;SDS011;25173;50.430;18.926;2024-01-30T09:11:09;23.83;;;13.65;;
39486;SDS011;25173;50.430;18.926;2024-01-30T09:14:13;18.27;;;11.02;;
39486;SDS011;25173;50.430;18.926;2024-01-30T09:17:14;33.33;;;16.38;;
39486;SDS011;25173;50.430;18.926;2024-01-30T09:20:14;28.85;;;15.73;;
39486;SDS011;25173;50.430;18.926;2024-01-30T09:23:15;30.65;;;14.00;;
39486;SDS011;25173;50.430;18.926;2024-01-30T09:26:17;45.90;;;24.60;;
39486;SDS011;25173;50.430;18.926;2024-01-30T09:29:18;129.50;;;58.42;;
39486;SDS011;25173;50.430;18.926;2024-01-30T09:32:18;37.10;;;18.33;;
39486;SDS011;25173;50.430;18.926;2024-01-30T09:35:19;81.70;;;35.10;;
39486;SDS011;25173;50.430;18.926;2024-01-30T09:38:20;46.90;;;23.48;;
39486;SDS011;25173;50.430;18.926;2024-01-30T09:41:21;42.75;;;21.90;;
39486;SDS011;25173;50.430;18.926;2024-01-30T09:44:24;75.90;;;35.03;;
39486;SDS011;25173;50.430;18.926;2024-01-30T09:47:31;55.88;;;31.15;;
39486;SDS011;25173;50.430;18.926;2024-01-30T09:50:32;70.15;;;36.90;;
39486;SDS011;25173;50.430;18.926;2024-01-30T09:53:36;47.50;;;26.77;;
39486;SDS011;25173;50.430;18.926;2024-01-30T09:56:38;18.80;;;11.93;;
39486;SDS011;25173;50.430;18.926;2024-01-30T09:59:38;21.67;;;13.35;;
39486;SDS011;25173;50.430;18.926;2024-01-30T10:02:39;35.38;;;19.40;;
39486;SDS011;25173;50.430;18.926;2024-01-30T10:05:40;27.73;;;13.05;;
39486;SDS011;25173;50.430;18.926;2024-01-30T10:08:42;34.15;;;16.88;;
39486;SDS011;25173;50.430;18.926;2024-01-30T10:11:42;25.08;;;16.08;;
39486;SDS011;25173;50.430;18.926;2024-01-30T10:14:43;32.67;;;19.73;;
39486;SDS011;25173;50.430;18.926;2024-01-30T10:17:46;22.40;;;14.73;;
39486;SDS011;25173;50.430;18.926;2024-01-30T10:20:47;26.98;;;15.95;;
39486;SDS011;25173;50.430;18.926;2024-01-30T10:23:48;23.50;;;14.45;;
39486;SDS011;25173;50.430;18.926;2024-01-30T10:26:50;38.25;;;21.70;;
39486;SDS011;25173;50.430;18.926;2024-01-30T10:29:50;38.28;;;19.67;;
39486;SDS011;25173;50.430;18.926;2024-01-30T10:32:51;35.55;;;17.95;;
39486;SDS011;25173;50.430;18.926;2024-01-30T10:35:52;21.85;;;12.93;;
39486;SDS011;25173;50.430;18.926;2024-01-30T10:38:53;36.13;;;19.00;;
39486;SDS011;25173;50.430;18.926;2024-01-30T10:45:07;37.67;;;19.40;;
39486;SDS011;25173;50.430;18.926;2024-01-30T10:51:11;47.38;;;22.98;;
39486;SDS011;25173;50.430;18.926;2024-01-30T10:54:12;25.85;;;13.77;;
39486;SDS011;25173;50.430;18.926;2024-01-30T10:57:13;38.47;;;21.35;;
39486;SDS011;25173;50.430;18.926;2024-01-30T11:00:16;34.08;;;16.70;;
39486;SDS011;25173;50.430;18.926;2024-01-30T11:03:22;24.27;;;14.25;;
39486;SDS011;25173;50.430;18.926;2024-01-30T11:06:24;19.42;;;10.50;;
39486;SDS011;25173;50.430;18.926;2024-01-30T11:09:26;27.23;;;17.63;;
39486;SDS011;25173;50.430;18.926;2024-01-30T11:12:30;26.25;;;13.02;;
39486;SDS011;25173;50.430;18.926;2024-01-30T11:18:37;21.17;;;11.82;;
39486;SDS011;25173;50.430;18.926;2024-01-30T11:21:41;44.08;;;21.35;;
39486;SDS011;25173;50.430;18.926;2024-01-30T11:24:42;39.03;;;23.02;;
39486;SDS011;25173;50.430;18.926;2024-01-30T11:27:43;39.20;;;20.90;;
39486;SDS011;25173;50.430;18.926;2024-01-30T11:30:44;27.80;;;17.08;;
39486;SDS011;25173;50.430;18.926;2024-01-30T11:33:47;47.40;;;26.63;;
39486;SDS011;25173;50.430;18.926;2024-01-30T11:36:56;24.65;;;12.82;;
39486;SDS011;25173;50.430;18.926;2024-01-30T11:39:59;29.08;;;16.48;;
39486;SDS011;25173;50.430;18.926;2024-01-30T11:43:00;29.70;;;15.23;;
39486;SDS011;25173;50.430;18.926;2024-01-30T11:46:02;27.55;;;15.93;;
39486;SDS011;25173;50.430;18.926;2024-01-30T11:49:03;35.60;;;19.08;;
39486;SDS011;25173;50.430;18.926;2024-01-30T11:52:04;49.47;;;26.90;;
39486;SDS011;25173;50.430;18.926;2024-01-30T11:55:05;39.10;;;22.70;;
39486;SDS011;25173;50.430;18.926;2024-01-30T11:58:08;23.33;;;12.57;;
39486;SDS011;25173;50.430;18.926;2024-01-30T12:01:08;21.90;;;13.45;;
39486;SDS011;25173;50.430;18.926;2024-01-30T12:04:10;36.90;;;18.77;;
39486;SDS011;25173;50.430;18.926;2024-01-30T12:07:11;26.38;;;15.73;;
39486;SDS011;25173;50.430;18.926;2024-01-30T12:10:13;20.73;;;12.07;;
39486;SDS011;25173;50.430;18.926;2024-01-30T12:13:15;29.50;;;16.38;;
39486;SDS011;25173;50.430;18.926;2024-01-30T12:16:15;45.63;;;21.63;;
39486;SDS011;25173;50.430;18.926;2024-01-30T12:19:22;49.92;;;26.27;;
39486;SDS011;25173;50.430;18.926;2024-01-30T12:22:26;32.40;;;16.52;;
39486;SDS011;25173;50.430;18.926;2024-01-30T12:25:26;49.92;;;25.63;;
39486;SDS011;25173;50.430;18.926;2024-01-30T12:28:27;42.85;;;23.15;;
39486;SDS011;25173;50.430;18.926;2024-01-30T12:31:28;38.42;;;20.27;;
39486;SDS011;25173;50.430;18.926;2024-01-30T12:34:28;63.45;;;31.95;;
39486;SDS011;25173;50.430;18.926;2024-01-30T12:37:29;42.25;;;20.52;;
39486;SDS011;25173;50.430;18.926;2024-01-30T12:40:33;48.20;;;20.30;;
39486;SDS011;25173;50.430;18.926;2024-01-30T12:43:33;22.50;;;12.35;;
39486;SDS011;25173;50.430;18.926;2024-01-30T12:46:35;28.80;;;17.58;;
39486;SDS011;25173;50.430;18.926;2024-01-30T12:49:35;28.25;;;16.92;;
39486;SDS011;25173;50.430;18.926;2024-01-30T12:52:38;25.85;;;14.32;;
39486;SDS011;25173;50.430;18.926;2024-01-30T12:55:39;23.60;;;14.73;;
39486;SDS011;25173;50.430;18.926;2024-01-30T12:58:40;37.50;;;17.90;;
39486;SDS011;25173;50.430;18.926;2024-01-30T13:01:43;48.45;;;20.83;;
39486;SDS011;25173;50.430;18.926;2024-01-30T13:04:43;21.30;;;12.38;;
39486;SDS011;25173;50.430;18.926;2024-01-30T13:07:44;87.43;;;41.05;;
39486;SDS011;25173;50.430;18.926;2024-01-30T13:10:45;32.40;;;17.70;;
39486;SDS011;25173;50.430;18.926;2024-01-30T13:13:45;31.92;;;16.55;;
39486;SDS011;25173;50.430;18.926;2024-01-30T13:16:46;27.35;;;12.13;;
39486;SDS011;25173;50.430;18.926;2024-01-30T13:19:47;44.92;;;22.77;;
39486;SDS011;25173;50.430;18.926;2024-01-30T13:22:49;48.08;;;22.67;;
39486;SDS011;25173;50.430;18.926;2024-01-30T13:25:50;46.88;;;23.55;;
39486;SDS011;25173;50.430;18.926;2024-01-30T13:28:51;203.55;;;90.00;;
39486;SDS011;25173;50.430;18.926;2024-01-30T13:31:51;88.22;;;49.90;;
39486;SDS011;25173;50.430;18.926;2024-01-30T13:34:52;51.20;;;29.00;;
39486;SDS011;25173;50.430;18.926;2024-01-30T13:37:52;29.10;;;18.13;;
39486;SDS011;25173;50.430;18.926;2024-01-30T13:40:53;31.88;;;22.00;;
39486;SDS011;25173;50.430;18.926;2024-01-30T13:43:54;31.98;;;17.95;;
39486;SDS011;25173;50.430;18.926;2024-01-30T13:46:55;37.30;;;19.48;;
39486;SDS011;25173;50.430;18.926;2024-01-30T13:49:55;47.92;;;25.92;;
39486;SDS011;25173;50.430;18.926;2024-01-30T13:52:56;30.17;;;18.15;;
39486;SDS011;25173;50.430;18.926;2024-01-30T13:55:56;46.13;;;27.27;;
39486;SDS011;25173;50.430;18.926;2024-01-30T13:58:57;40.40;;;23.20;;
39486;SDS011;25173;50.430;18.926;2024-01-30T14:01:57;52.10;;;28.27;;
39486;SDS011;25173;50.430;18.926;2024-01-30T14:04:58;37.53;;;21.95;;
39486;SDS011;25173;50.430;18.926;2024-01-30T14:07:59;37.47;;;21.15;;
39486;SDS011;25173;50.430;18.926;2024-01-30T14:11:00;59.67;;;27.60;;
39486;SDS011;25173;50.430;18.926;2024-01-30T14:14:01;67.20;;;32.28;;
39486;SDS011;25173;50.430;18.926;2024-01-30T14:17:01;63.53;;;31.40;;
39486;SDS011;25173;50.430;18.926;2024-01-30T14:20:03;64.28;;;31.17;;
39486;SDS011;25173;50.430;18.926;2024-01-30T14:23:05;66.32;;;35.08;;
39486;SDS011;25173;50.430;18.926;2024-01-30T14:26:07;42.15;;;22.05;;
39486;SDS011;25173;50.430;18.926;2024-01-30T14:29:07;57.10;;;31.23;;
39486;SDS011;25173;50.430;18.926;2024-01-30T14:32:08;67.88;;;35.08;;
39486;SDS011;25173;50.430;18.926;2024-01-30T14:35:08;30.67;;;16.88;;
39486;SDS011;25173;50.430;18.926;2024-01-30T14:38:10;26.63;;;15.60;;
39486;SDS011;25173;50.430;18.926;2024-01-30T14:41:11;34.38;;;17.48;;
39486;SDS011;25173;50.430;18.926;2024-01-30T14:44:11;47.30;;;22.77;;
39486;SDS011;25173;50.430;18.926;2024-01-30T14:47:12;46.97;;;23.88;;
39486;SDS011;25173;50.430;18.926;2024-01-30T14:50:13;38.88;;;20.65;;
39486;SDS011;25173;50.430;18.926;2024-01-30T14:53:16;37.55;;;21.80;;
39486;SDS011;25173;50.430;18.926;2024-01-30T14:56:17;47.60;;;27.75;;
39486;SDS011;25173;50.430;18.926;2024-01-30T14:59:18;68.43;;;38.00;;
39486;SDS011;25173;50.430;18.926;2024-01-30T15:02:19;59.08;;;32.30;;
39486;SDS011;25173;50.430;18.926;2024-01-30T15:05:20;60.00;;;33.40;;
39486;SDS011;25173;50.430;18.926;2024-01-30T15:08:21;42.00;;;21.15;;
39486;SDS011;25173;50.430;18.926;2024-01-30T15:11:21;35.00;;;19.08;;
39486;SDS011;25173;50.430;18.926;2024-01-30T15:14:22;44.28;;;24.48;;
39486;SDS011;25173;50.430;18.926;2024-01-30T15:17:24;34.25;;;20.50;;
39486;SDS011;25173;50.430;18.926;2024-01-30T15:20:25;31.15;;;19.95;;
39486;SDS011;25173;50.430;18.926;2024-01-30T15:23:25;52.72;;;29.73;;
39486;SDS011;25173;50.430;18.926;2024-01-30T15:26:26;123.55;;;57.00;;
39486;SDS011;25173;50.430;18.926;2024-01-30T15:29:26;53.63;;;30.05;;
39486;SDS011;25173;50.430;18.926;2024-01-30T15:32:27;84.97;;;43.90;;
39486;SDS011;25173;50.430;18.926;2024-01-30T15:35:27;54.78;;;31.08;;
39486;SDS011;25173;50.430;18.926;2024-01-30T15:38:28;61.83;;;33.15;;
39486;SDS011;25173;50.430;18.926;2024-01-30T15:41:29;81.18;;;44.70;;
39486;SDS011;25173;50.430;18.926;2024-01-30T15:44:29;52.92;;;31.27;;
39486;SDS011;25173;50.430;18.926;2024-01-30T15:47:32;63.58;;;36.10;;
39486;SDS011;25173;50.430;18.926;2024-01-30T15:50:32;72.95;;;40.17;;
39486;SDS011;25173;50.430;18.926;2024-01-30T15:53:33;58.42;;;32.55;;
39486;SDS011;25173;50.430;18.926;2024-01-30T15:56:33;55.92;;;33.30;;
39486;SDS011;25173;50.430;18.926;2024-01-30T15:59:34;45.03;;;25.88;;
39486;SDS011;25173;50.430;18.926;2024-01-30T16:02:34;57.03;;;32.20;;
39486;SDS011;25173;50.430;18.926;2024-01-30T16:05:35;77.70;;;40.40;;
39486;SDS011;25173;50.430;18.926;2024-01-30T16:08:35;71.28;;;39.10;;
39486;SDS011;25173;50.430;18.926;2024-01-30T16:11:36;57.10;;;31.63;;
39486;SDS011;25173;50.430;18.926;2024-01-30T16:14:38;85.45;;;52.78;;
39486;SDS011;25173;50.430;18.926;2024-01-30T16:17:39;105.82;;;77.45;;
39486;SDS011;25173;50.430;18.926;2024-01-30T16:20:39;101.18;;;64.05;;
39486;SDS011;25173;50.430;18.926;2024-01-30T16:23:42;128.27;;;79.60;;
39486;SDS011;25173;50.430;18.926;2024-01-30T16:26:42;120.97;;;76.38;;
39486;SDS011;25173;50.430;18.926;2024-01-30T16:29:43;104.85;;;60.78;;
39486;SDS011;25173;50.430;18.926;2024-01-30T16:32:44;114.13;;;63.33;;
39486;SDS011;25173;50.430;18.926;2024-01-30T16:35:45;94.28;;;47.20;;
39486;SDS011;25173;50.430;18.926;2024-01-30T16:38:46;85.03;;;42.85;;
39486;SDS011;25173;50.430;18.926;2024-01-30T16:41:46;184.48;;;88.18;;
39486;SDS011;25173;50.430;18.926;2024-01-30T16:44:47;89.53;;;45.55;;
39486;SDS011;25173;50.430;18.926;2024-01-30T16:47:47;103.70;;;58.83;;
39486;SDS011;25173;50.430;18.926;2024-01-30T16:50:48;40.55;;;23.95;;
39486;SDS011;25173;50.430;18.926;2024-01-30T16:53:49;41.83;;;22.65;;
39486;SDS011;25173;50.430;18.926;2024-01-30T16:56:49;43.47;;;23.77;;
39486;SDS011;25173;50.430;18.926;2024-01-30T16:59:50;36.28;;;20.75;;
39486;SDS011;25173;50.430;18.926;2024-01-30T17:02:50;47.58;;;24.30;;
39486;SDS011;25173;50.430;18.926;2024-01-30T17:05:51;37.33;;;19.63;;
39486;SDS011;25173;50.430;18.926;2024-01-30T17:08:54;32.83;;;17.83;;
39486;SDS011;25173;50.430;18.926;2024-01-30T17:11:56;50.17;;;24.80;;
39486;SDS011;25173;50.430;18.926;2024-01-30T17:14:56;32.28;;;19.30;;
39486;SDS011;25173;50.430;18.926;2024-01-30T17:17:57;34.05;;;18.10;;
39486;SDS011;25173;50.430;18.926;2024-01-30T17:20:57;40.22;;;22.25;;
39486;SDS011;25173;50.430;18.926;2024-01-30T17:23:58;37.58;;;20.92;;
39486;SDS011;25173;50.430;18.926;2024-01-30T17:26:59;52.33;;;30.77;;
39486;SDS011;25173;50.430;18.926;2024-01-30T17:30:00;50.10;;;25.83;;
39486;SDS011;25173;50.430;18.926;2024-01-30T17:33:00;40.83;;;20.55;;